sensor_id;sensor_type;location;lat;lon;timestamp;temperature;humidity
67759;SHT31;54562;47.620;18.786;2022-08-21T00:01:40;18.96;85.80
67759;SHT31;54562;47.620;18.786;2022-08-21T00:04:49;18.94;85.88
67759;SHT31;54562;47.620;18.786;2022-08-21T00:07:59;18.92;85.86
67759;SHT31;54562;47.620;18.786;2022-08-21T00:11:08;18.90;85.93
67759;SHT31;54562;47.620;18.786;2022-08-21T00:14:16;18.88;85.95
67759;SHT31;54562;47.620;18.786;2022-08-21T00:17:24;18.86;85.97
67759;SHT31;54562;47.620;18.786;2022-08-21T00:20:33;18.87;86.05
67759;SHT31;54562;47.620;18.786;2022-08-21T00:23:42;18.88;86.09
67759;SHT31;54562;47.620;18.786;2022-08-21T00:26:50;18.87;86.10
67759;SHT31;54562;47.620;18.786;2022-08-21T00:29:58;18.86;86.08
67759;SHT31;54562;47.620;18.786;2022-08-21T00:33:08;18.84;86.09
67759;SHT31;54562;47.620;18.786;2022-08-21T00:36:17;18.82;86.14
67759;SHT31;54562;47.620;18.786;2022-08-21T00:39:24;18.81;86.20
67759;SHT31;54562;47.620;18.786;2022-08-21T00:42:32;18.81;86.20
67759;SHT31;54562;47.620;18.786;2022-08-21T00:45:40;18.80;86.26
67759;SHT31;54562;47.620;18.786;2022-08-21T00:48:49;18.80;86.29
67759;SHT31;54562;47.620;18.786;2022-08-21T00:52:00;18.80;86.24
67759;SHT31;54562;47.620;18.786;2022-08-21T00:55:16;18.79;86.31
67759;SHT31;54562;47.620;18.786;2022-08-21T00:58:28;18.78;86.38
67759;SHT31;54562;47.620;18.786;2022-08-21T01:01:39;18.78;86.35
67759;SHT31;54562;47.620;18.786;2022-08-21T01:04:48;18.75;86.38
67759;SHT31;54562;47.620;18.786;2022-08-21T01:07:56;18.75;86.46
67759;SHT31;54562;47.620;18.786;2022-08-21T01:11:04;18.74;86.48
67759;SHT31;54562;47.620;18.786;2022-08-21T01:14:13;18.72;86.50
67759;SHT31;54562;47.620;18.786;2022-08-21T01:17:22;18.70;86.52
67759;SHT31;54562;47.620;18.786;2022-08-21T01:20:31;18.69;86.58
67759;SHT31;54562;47.620;18.786;2022-08-21T01:23:41;18.67;86.60
67759;SHT31;54562;47.620;18.786;2022-08-21T01:26:52;18.66;86.66
67759;SHT31;54562;47.620;18.786;2022-08-21T01:30:04;18.65;86.64
67759;SHT31;54562;47.620;18.786;2022-08-21T01:33:20;18.65;86.65
67759;SHT31;54562;47.620;18.786;2022-08-21T01:36:31;18.63;86.70
67759;SHT31;54562;47.620;18.786;2022-08-21T01:39:41;18.63;86.70
67759;SHT31;54562;47.620;18.786;2022-08-21T01:42:49;18.62;86.71
67759;SHT31;54562;47.620;18.786;2022-08-21T01:45:57;18.62;86.70
67759;SHT31;54562;47.620;18.786;2022-08-21T01:49:06;18.60;86.75
67759;SHT31;54562;47.620;18.786;2022-08-21T01:52:14;18.60;86.78
67759;SHT31;54562;47.620;18.786;2022-08-21T01:55:23;18.58;86.91
67759;SHT31;54562;47.620;18.786;2022-08-21T01:58:32;18.56;87.13
67759;SHT31;54562;47.620;18.786;2022-08-21T02:01:40;18.55;86.98
67759;SHT31;54562;47.620;18.786;2022-08-21T02:04:48;18.53;86.97
67759;SHT31;54562;47.620;18.786;2022-08-21T02:07:57;18.53;87.03
67759;SHT31;54562;47.620;18.786;2022-08-21T02:11:05;18.55;87.03
67759;SHT31;54562;47.620;18.786;2022-08-21T02:14:14;18.54;87.09
67759;SHT31;54562;47.620;18.786;2022-08-21T02:17:38;18.53;87.10
67759;SHT31;54562;47.620;18.786;2022-08-21T02:20:49;18.53;87.10
67759;SHT31;54562;47.620;18.786;2022-08-21T02:23:58;18.52;87.12
67759;SHT31;54562;47.620;18.786;2022-08-21T02:27:07;18.53;87.12
67759;SHT31;54562;47.620;18.786;2022-08-21T02:30:16;18.50;87.13
67759;SHT31;54562;47.620;18.786;2022-08-21T02:33:29;18.50;87.19
67759;SHT31;54562;47.620;18.786;2022-08-21T02:36:37;18.49;87.21
67759;SHT31;54562;47.620;18.786;2022-08-21T02:39:45;18.50;87.22
67759;SHT31;54562;47.620;18.786;2022-08-21T02:42:53;18.48;87.28
67759;SHT31;54562;47.620;18.786;2022-08-21T02:46:02;18.48;87.28
67759;SHT31;54562;47.620;18.786;2022-08-21T02:49:16;18.47;87.33
67759;SHT31;54562;47.620;18.786;2022-08-21T02:52:24;18.49;87.31
67759;SHT31;54562;47.620;18.786;2022-08-21T02:55:33;18.49;87.33
67759;SHT31;54562;47.620;18.786;2022-08-21T02:58:42;18.49;87.32
67759;SHT31;54562;47.620;18.786;2022-08-21T03:01:51;18.47;87.38
67759;SHT31;54562;47.620;18.786;2022-08-21T03:04:59;18.48;87.32
67759;SHT31;54562;47.620;18.786;2022-08-21T03:08:08;18.49;87.30
67759;SHT31;54562;47.620;18.786;2022-08-21T03:11:19;18.48;87.30
67759;SHT31;54562;47.620;18.786;2022-08-21T03:14:27;18.49;87.30
67759;SHT31;54562;47.620;18.786;2022-08-21T03:17:35;18.50;87.32
67759;SHT31;54562;47.620;18.786;2022-08-21T03:20:44;18.49;87.32
67759;SHT31;54562;47.620;18.786;2022-08-21T03:23:53;18.48;87.40
67759;SHT31;54562;47.620;18.786;2022-08-21T03:27:06;18.50;87.39
67759;SHT31;54562;47.620;18.786;2022-08-21T03:30:16;18.50;87.38
67759;SHT31;54562;47.620;18.786;2022-08-21T03:33:26;18.51;87.38
67759;SHT31;54562;47.620;18.786;2022-08-21T03:36:35;18.50;87.37
67759;SHT31;54562;47.620;18.786;2022-08-21T03:39:43;18.50;87.39
67759;SHT31;54562;47.620;18.786;2022-08-21T03:42:51;18.50;87.36
67759;SHT31;54562;47.620;18.786;2022-08-21T03:46:00;18.50;87.38
67759;SHT31;54562;47.620;18.786;2022-08-21T03:49:10;18.51;87.35
67759;SHT31;54562;47.620;18.786;2022-08-21T03:52:18;18.51;87.30
67759;SHT31;54562;47.620;18.786;2022-08-21T03:55:26;18.51;87.29
67759;SHT31;54562;47.620;18.786;2022-08-21T03:58:34;18.52;87.26
67759;SHT31;54562;47.620;18.786;2022-08-21T04:01:52;18.53;87.28
67759;SHT31;54562;47.620;18.786;2022-08-21T04:05:02;18.53;87.25
67759;SHT31;54562;47.620;18.786;2022-08-21T04:08:12;18.54;87.22
67759;SHT31;54562;47.620;18.786;2022-08-21T04:11:22;18.53;87.30
67759;SHT31;54562;47.620;18.786;2022-08-21T04:14:30;18.54;87.24
67759;SHT31;54562;47.620;18.786;2022-08-21T04:17:38;18.54;87.21
67759;SHT31;54562;47.620;18.786;2022-08-21T04:20:47;18.55;87.18
67759;SHT31;54562;47.620;18.786;2022-08-21T04:24:00;18.56;87.15
67759;SHT31;54562;47.620;18.786;2022-08-21T04:27:10;18.55;87.07
67759;SHT31;54562;47.620;18.786;2022-08-21T04:30:18;18.55;87.00
67759;SHT31;54562;47.620;18.786;2022-08-21T04:33:30;18.55;87.00
67759;SHT31;54562;47.620;18.786;2022-08-21T04:36:38;18.53;86.94
67759;SHT31;54562;47.620;18.786;2022-08-21T04:39:46;18.52;86.85
67759;SHT31;54562;47.620;18.786;2022-08-21T04:42:57;18.52;86.84
67759;SHT31;54562;47.620;18.786;2022-08-21T04:46:09;18.52;86.85
67759;SHT31;54562;47.620;18.786;2022-08-21T04:49:17;18.53;86.82
67759;SHT31;54562;47.620;18.786;2022-08-21T04:52:26;18.51;86.78
67759;SHT31;54562;47.620;18.786;2022-08-21T04:55:34;18.51;86.72
67759;SHT31;54562;47.620;18.786;2022-08-21T04:58:43;18.51;86.72
67759;SHT31;54562;47.620;18.786;2022-08-21T05:01:52;18.52;86.65
67759;SHT31;54562;47.620;18.786;2022-08-21T05:05:01;18.49;86.60
67759;SHT31;54562;47.620;18.786;2022-08-21T05:08:11;18.48;86.55
67759;SHT31;54562;47.620;18.786;2022-08-21T05:11:23;18.47;86.53
67759;SHT31;54562;47.620;18.786;2022-08-21T05:14:31;18.45;86.50
67759;SHT31;54562;47.620;18.786;2022-08-21T05:17:40;18.44;86.50
67759;SHT31;54562;47.620;18.786;2022-08-21T05:21:03;18.42;86.50
67759;SHT31;54562;47.620;18.786;2022-08-21T05:24:11;18.42;86.50
67759;SHT31;54562;47.620;18.786;2022-08-21T05:27:20;18.43;86.49
67759;SHT31;54562;47.620;18.786;2022-08-21T05:30:29;18.42;86.43
67759;SHT31;54562;47.620;18.786;2022-08-21T05:33:38;18.41;86.40
67759;SHT31;54562;47.620;18.786;2022-08-21T05:36:47;18.42;86.38
67759;SHT31;54562;47.620;18.786;2022-08-21T05:39:55;18.43;86.50
67759;SHT31;54562;47.620;18.786;2022-08-21T05:43:24;18.44;86.50
67759;SHT31;54562;47.620;18.786;2022-08-21T05:46:32;18.43;86.49
67759;SHT31;54562;47.620;18.786;2022-08-21T05:49:41;18.44;86.50
67759;SHT31;54562;47.620;18.786;2022-08-21T05:52:49;18.44;86.49
67759;SHT31;54562;47.620;18.786;2022-08-21T05:56:08;18.45;86.51
67759;SHT31;54562;47.620;18.786;2022-08-21T05:59:16;18.44;86.50
67759;SHT31;54562;47.620;18.786;2022-08-21T06:02:24;18.43;86.53
67759;SHT31;54562;47.620;18.786;2022-08-21T06:05:33;18.44;86.55
67759;SHT31;54562;47.620;18.786;2022-08-21T06:08:41;18.43;86.50
67759;SHT31;54562;47.620;18.786;2022-08-21T06:11:49;18.43;86.52
67759;SHT31;54562;47.620;18.786;2022-08-21T06:14:57;18.43;86.54
67759;SHT31;54562;47.620;18.786;2022-08-21T06:18:05;18.44;86.56
67759;SHT31;54562;47.620;18.786;2022-08-21T06:21:15;18.44;86.59
67759;SHT31;54562;47.620;18.786;2022-08-21T06:24:23;18.46;86.57
67759;SHT31;54562;47.620;18.786;2022-08-21T06:27:32;18.48;86.60
67759;SHT31;54562;47.620;18.786;2022-08-21T06:30:40;18.51;86.54
67759;SHT31;54562;47.620;18.786;2022-08-21T06:33:48;18.53;86.54
67759;SHT31;54562;47.620;18.786;2022-08-21T06:36:57;18.57;86.50
67759;SHT31;54562;47.620;18.786;2022-08-21T06:40:06;18.60;86.47
67759;SHT31;54562;47.620;18.786;2022-08-21T06:43:17;18.64;86.45
67759;SHT31;54562;47.620;18.786;2022-08-21T06:46:41;18.67;86.44
67759;SHT31;54562;47.620;18.786;2022-08-21T06:49:50;18.71;86.53
67759;SHT31;54562;47.620;18.786;2022-08-21T06:53:00;18.74;86.47
67759;SHT31;54562;47.620;18.786;2022-08-21T06:56:10;18.79;86.51
67759;SHT31;54562;47.620;18.786;2022-08-21T06:59:19;18.83;86.54
67759;SHT31;54562;47.620;18.786;2022-08-21T07:02:27;18.86;86.50
67759;SHT31;54562;47.620;18.786;2022-08-21T07:05:36;18.91;86.47
67759;SHT31;54562;47.620;18.786;2022-08-21T07:08:44;18.94;86.36
67759;SHT31;54562;47.620;18.786;2022-08-21T07:11:53;18.99;86.37
67759;SHT31;54562;47.620;18.786;2022-08-21T07:15:02;19.06;86.39
67759;SHT31;54562;47.620;18.786;2022-08-21T07:18:12;19.12;86.35
67759;SHT31;54562;47.620;18.786;2022-08-21T07:21:21;19.18;86.18
67759;SHT31;54562;47.620;18.786;2022-08-21T07:24:29;19.23;86.05
67759;SHT31;54562;47.620;18.786;2022-08-21T07:27:37;19.27;86.00
67759;SHT31;54562;47.620;18.786;2022-08-21T07:30:45;19.33;85.85
67759;SHT31;54562;47.620;18.786;2022-08-21T07:33:57;19.38;85.63
67759;SHT31;54562;47.620;18.786;2022-08-21T07:37:05;19.41;85.57
67759;SHT31;54562;47.620;18.786;2022-08-21T07:40:13;19.48;85.59
67759;SHT31;54562;47.620;18.786;2022-08-21T07:43:23;19.55;85.63
67759;SHT31;54562;47.620;18.786;2022-08-21T07:46:32;19.57;85.55
67759;SHT31;54562;47.620;18.786;2022-08-21T07:49:40;19.60;85.41
67759;SHT31;54562;47.620;18.786;2022-08-21T07:52:49;19.62;85.40
67759;SHT31;54562;47.620;18.786;2022-08-21T07:55:58;19.63;85.27
67759;SHT31;54562;47.620;18.786;2022-08-21T07:59:07;19.65;85.20
67759;SHT31;54562;47.620;18.786;2022-08-21T08:02:22;19.69;85.26
67759;SHT31;54562;47.620;18.786;2022-08-21T08:05:33;19.73;85.01
67759;SHT31;54562;47.620;18.786;2022-08-21T08:08:42;19.71;84.91
67759;SHT31;54562;47.620;18.786;2022-08-21T08:11:51;19.70;84.90
67759;SHT31;54562;47.620;18.786;2022-08-21T08:14:59;19.72;84.87
67759;SHT31;54562;47.620;18.786;2022-08-21T08:18:10;19.73;84.80
67759;SHT31;54562;47.620;18.786;2022-08-21T08:21:18;19.75;84.82
67759;SHT31;54562;47.620;18.786;2022-08-21T08:24:26;19.79;84.90
67759;SHT31;54562;47.620;18.786;2022-08-21T08:27:34;19.85;84.88
67759;SHT31;54562;47.620;18.786;2022-08-21T08:30:43;19.92;84.85
67759;SHT31;54562;47.620;18.786;2022-08-21T08:33:52;20.00;84.87
67759;SHT31;54562;47.620;18.786;2022-08-21T08:36:58;20.07;84.75
67759;SHT31;54562;47.620;18.786;2022-08-21T08:40:11;20.10;84.57
67759;SHT31;54562;47.620;18.786;2022-08-21T08:43:27;20.12;84.49
67759;SHT31;54562;47.620;18.786;2022-08-21T08:46:38;20.16;84.42
67759;SHT31;54562;47.620;18.786;2022-08-21T08:49:53;20.17;84.32
67759;SHT31;54562;47.620;18.786;2022-08-21T08:53:10;20.21;84.27
67759;SHT31;54562;47.620;18.786;2022-08-21T08:56:26;20.23;84.11
67759;SHT31;54562;47.620;18.786;2022-08-21T08:59:38;20.26;84.09
67759;SHT31;54562;47.620;18.786;2022-08-21T09:02:53;20.30;84.11
67759;SHT31;54562;47.620;18.786;2022-08-21T09:06:06;20.36;83.95
67759;SHT31;54562;47.620;18.786;2022-08-21T09:09:33;20.43;83.87
67759;SHT31;54562;47.620;18.786;2022-08-21T09:12:59;20.53;83.72
67759;SHT31;54562;47.620;18.786;2022-08-21T09:16:21;20.64;83.38
67759;SHT31;54562;47.620;18.786;2022-08-21T09:19:48;20.73;83.26
67759;SHT31;54562;47.620;18.786;2022-08-21T09:23:15;20.85;83.26
67759;SHT31;54562;47.620;18.786;2022-08-21T09:26:35;20.97;83.07
67759;SHT31;54562;47.620;18.786;2022-08-21T09:29:53;21.03;82.82
67759;SHT31;54562;47.620;18.786;2022-08-21T09:33:01;21.08;82.79
67759;SHT31;54562;47.620;18.786;2022-08-21T09:36:09;21.11;82.50
67759;SHT31;54562;47.620;18.786;2022-08-21T09:39:28;21.15;82.30
67759;SHT31;54562;47.620;18.786;2022-08-21T09:42:55;21.17;82.09
67759;SHT31;54562;47.620;18.786;2022-08-21T09:46:10;21.19;82.16
67759;SHT31;54562;47.620;18.786;2022-08-21T09:49:28;21.23;82.09
67759;SHT31;54562;47.620;18.786;2022-08-21T09:52:43;21.25;81.95
67759;SHT31;54562;47.620;18.786;2022-08-21T09:55:57;21.28;81.72
67759;SHT31;54562;47.620;18.786;2022-08-21T09:59:38;21.30;81.71
67759;SHT31;54562;47.620;18.786;2022-08-21T10:02:48;21.32;81.47
67759;SHT31;54562;47.620;18.786;2022-08-21T10:05:58;21.36;81.46
67759;SHT31;54562;47.620;18.786;2022-08-21T10:09:13;21.44;81.51
67759;SHT31;54562;47.620;18.786;2022-08-21T10:12:25;21.55;81.54
67759;SHT31;54562;47.620;18.786;2022-08-21T10:15:47;21.61;81.03
67759;SHT31;54562;47.620;18.786;2022-08-21T10:19:14;21.65;81.03
67759;SHT31;54562;47.620;18.786;2022-08-21T10:22:40;21.69;81.05
67759;SHT31;54562;47.620;18.786;2022-08-21T10:26:05;21.71;80.94
67759;SHT31;54562;47.620;18.786;2022-08-21T10:29:26;21.73;80.79
67759;SHT31;54562;47.620;18.786;2022-08-21T10:32:55;21.76;80.92
67759;SHT31;54562;47.620;18.786;2022-08-21T10:36:25;21.81;80.68
67759;SHT31;54562;47.620;18.786;2022-08-21T10:39:44;21.83;80.49
67759;SHT31;54562;47.620;18.786;2022-08-21T10:43:10;21.83;80.38
67759;SHT31;54562;47.620;18.786;2022-08-21T10:46:36;21.83;80.54
67759;SHT31;54562;47.620;18.786;2022-08-21T10:49:57;21.86;80.41
67759;SHT31;54562;47.620;18.786;2022-08-21T10:57:15;21.86;80.21
67759;SHT31;54562;47.620;18.786;2022-08-21T11:00:36;21.91;80.13
67759;SHT31;54562;47.620;18.786;2022-08-21T11:03:51;21.97;79.98
67759;SHT31;54562;47.620;18.786;2022-08-21T11:07:20;22.00;79.97
67759;SHT31;54562;47.620;18.786;2022-08-21T11:10:37;22.00;79.78
67759;SHT31;54562;47.620;18.786;2022-08-21T11:14:02;21.99;79.79
67759;SHT31;54562;47.620;18.786;2022-08-21T11:17:18;22.00;79.98
67759;SHT31;54562;47.620;18.786;2022-08-21T11:20:36;22.00;79.78
67759;SHT31;54562;47.620;18.786;2022-08-21T11:23:54;21.97;79.77
67759;SHT31;54562;47.620;18.786;2022-08-21T11:27:23;21.99;79.88
67759;SHT31;54562;47.620;18.786;2022-08-21T11:30:39;21.99;79.69
67759;SHT31;54562;47.620;18.786;2022-08-21T11:34:07;22.00;79.65
67759;SHT31;54562;47.620;18.786;2022-08-21T11:37:36;22.01;79.67
67759;SHT31;54562;47.620;18.786;2022-08-21T11:41:07;22.02;79.82
67759;SHT31;54562;47.620;18.786;2022-08-21T11:44:31;22.03;79.73
67759;SHT31;54562;47.620;18.786;2022-08-21T11:47:54;22.00;79.53
67759;SHT31;54562;47.620;18.786;2022-08-21T11:51:19;21.96;79.53
67759;SHT31;54562;47.620;18.786;2022-08-21T11:54:36;21.94;79.59
67759;SHT31;54562;47.620;18.786;2022-08-21T11:57:51;21.92;79.62
67759;SHT31;54562;47.620;18.786;2022-08-21T12:01:05;21.91;79.71
67759;SHT31;54562;47.620;18.786;2022-08-21T12:04:22;21.91;79.67
67759;SHT31;54562;47.620;18.786;2022-08-21T12:07:35;21.86;79.45
67759;SHT31;54562;47.620;18.786;2022-08-21T12:10:58;21.84;79.52
67759;SHT31;54562;47.620;18.786;2022-08-21T12:14:13;21.83;79.56
67759;SHT31;54562;47.620;18.786;2022-08-21T12:17:24;21.84;79.65
67759;SHT31;54562;47.620;18.786;2022-08-21T12:20:44;21.87;79.57
67759;SHT31;54562;47.620;18.786;2022-08-21T12:24:17;21.90;79.65
67759;SHT31;54562;47.620;18.786;2022-08-21T12:27:44;21.97;79.42
67759;SHT31;54562;47.620;18.786;2022-08-21T12:30:54;22.02;79.26
67759;SHT31;54562;47.620;18.786;2022-08-21T12:34:04;22.07;79.20
67759;SHT31;54562;47.620;18.786;2022-08-21T12:37:20;22.09;79.13
67759;SHT31;54562;47.620;18.786;2022-08-21T12:40:40;22.10;79.14
67759;SHT31;54562;47.620;18.786;2022-08-21T12:43:56;22.08;79.24
67759;SHT31;54562;47.620;18.786;2022-08-21T12:47:14;22.09;79.14
67759;SHT31;54562;47.620;18.786;2022-08-21T12:50:34;22.06;78.95
67759;SHT31;54562;47.620;18.786;2022-08-21T12:53:52;22.03;78.81
67759;SHT31;54562;47.620;18.786;2022-08-21T12:57:04;22.05;78.79
67759;SHT31;54562;47.620;18.786;2022-08-21T13:00:25;22.06;78.88
67759;SHT31;54562;47.620;18.786;2022-08-21T13:03:35;22.06;78.99
67759;SHT31;54562;47.620;18.786;2022-08-21T13:06:46;22.09;78.96
67759;SHT31;54562;47.620;18.786;2022-08-21T13:09:57;22.10;78.82
67759;SHT31;54562;47.620;18.786;2022-08-21T13:13:12;22.11;78.89
67759;SHT31;54562;47.620;18.786;2022-08-21T13:16:31;22.15;78.93
67759;SHT31;54562;47.620;18.786;2022-08-21T13:19:40;22.16;78.63
67759;SHT31;54562;47.620;18.786;2022-08-21T13:22:56;22.13;78.63
67759;SHT31;54562;47.620;18.786;2022-08-21T13:26:13;22.11;78.56
67759;SHT31;54562;47.620;18.786;2022-08-21T13:29:28;22.10;78.58
67759;SHT31;54562;47.620;18.786;2022-08-21T13:32:41;22.08;78.46
67759;SHT31;54562;47.620;18.786;2022-08-21T13:36:01;22.07;78.72
67759;SHT31;54562;47.620;18.786;2022-08-21T13:39:17;22.10;78.68
67759;SHT31;54562;47.620;18.786;2022-08-21T13:42:26;22.12;78.53
67759;SHT31;54562;47.620;18.786;2022-08-21T13:45:36;22.11;78.47
67759;SHT31;54562;47.620;18.786;2022-08-21T13:48:47;22.09;78.43
67759;SHT31;54562;47.620;18.786;2022-08-21T13:51:56;22.07;78.38
67759;SHT31;54562;47.620;18.786;2022-08-21T13:55:08;22.01;78.37
67759;SHT31;54562;47.620;18.786;2022-08-21T13:58:27;21.98;78.51
67759;SHT31;54562;47.620;18.786;2022-08-21T14:01:38;21.95;78.53
67759;SHT31;54562;47.620;18.786;2022-08-21T14:05:02;21.88;78.50
67759;SHT31;54562;47.620;18.786;2022-08-21T14:08:14;21.83;78.70
67759;SHT31;54562;47.620;18.786;2022-08-21T14:11:34;21.80;78.72
67759;SHT31;54562;47.620;18.786;2022-08-21T14:14:44;21.78;78.74
67759;SHT31;54562;47.620;18.786;2022-08-21T14:17:52;21.76;78.72
67759;SHT31;54562;47.620;18.786;2022-08-21T14:21:13;21.73;78.86
67759;SHT31;54562;47.620;18.786;2022-08-21T14:24:39;21.70;78.94
67759;SHT31;54562;47.620;18.786;2022-08-21T14:27:52;21.72;79.07
67759;SHT31;54562;47.620;18.786;2022-08-21T14:31:12;21.72;78.94
67759;SHT31;54562;47.620;18.786;2022-08-21T14:34:25;21.70;78.96
67759;SHT31;54562;47.620;18.786;2022-08-21T14:37:40;21.70;79.02
67759;SHT31;54562;47.620;18.786;2022-08-21T14:40:53;21.70;79.22
67759;SHT31;54562;47.620;18.786;2022-08-21T14:44:09;21.68;79.31
67759;SHT31;54562;47.620;18.786;2022-08-21T14:47:17;21.67;79.44
67759;SHT31;54562;47.620;18.786;2022-08-21T14:50:26;21.65;79.52
67759;SHT31;54562;47.620;18.786;2022-08-21T14:53:34;21.63;79.57
67759;SHT31;54562;47.620;18.786;2022-08-21T14:56:42;21.61;79.53
67759;SHT31;54562;47.620;18.786;2022-08-21T14:59:56;21.56;79.54
67759;SHT31;54562;47.620;18.786;2022-08-21T15:03:04;21.53;79.59
67759;SHT31;54562;47.620;18.786;2022-08-21T15:06:14;21.51;79.78
67759;SHT31;54562;47.620;18.786;2022-08-21T15:09:24;21.51;79.94
67759;SHT31;54562;47.620;18.786;2022-08-21T15:12:32;21.52;80.07
67759;SHT31;54562;47.620;18.786;2022-08-21T15:15:41;21.53;80.22
67759;SHT31;54562;47.620;18.786;2022-08-21T15:18:52;21.54;80.46
67759;SHT31;54562;47.620;18.786;2022-08-21T15:22:01;21.54;80.57
67759;SHT31;54562;47.620;18.786;2022-08-21T15:25:21;21.54;80.71
67759;SHT31;54562;47.620;18.786;2022-08-21T15:28:30;21.52;80.93
67759;SHT31;54562;47.620;18.786;2022-08-21T15:31:50;21.52;80.99
67759;SHT31;54562;47.620;18.786;2022-08-21T15:35:03;21.48;80.89
67759;SHT31;54562;47.620;18.786;2022-08-21T15:38:12;21.42;80.87
67759;SHT31;54562;47.620;18.786;2022-08-21T15:41:20;21.36;80.97
67759;SHT31;54562;47.620;18.786;2022-08-21T15:44:28;21.30;81.07
67759;SHT31;54562;47.620;18.786;2022-08-21T15:47:38;21.23;81.29
67759;SHT31;54562;47.620;18.786;2022-08-21T15:50:50;21.14;81.40
67759;SHT31;54562;47.620;18.786;2022-08-21T15:53:59;21.08;81.71
67759;SHT31;54562;47.620;18.786;2022-08-21T15:57:08;21.02;81.88
67759;SHT31;54562;47.620;18.786;2022-08-21T16:00:20;20.97;82.13
67759;SHT31;54562;47.620;18.786;2022-08-21T16:03:32;20.92;82.27
67759;SHT31;54562;47.620;18.786;2022-08-21T16:06:41;20.88;82.53
67759;SHT31;54562;47.620;18.786;2022-08-21T16:09:58;20.83;82.70
67759;SHT31;54562;47.620;18.786;2022-08-21T16:13:10;20.77;82.86
67759;SHT31;54562;47.620;18.786;2022-08-21T16:16:23;20.74;83.11
67759;SHT31;54562;47.620;18.786;2022-08-21T16:19:33;20.69;83.38
67759;SHT31;54562;47.620;18.786;2022-08-21T16:22:43;20.65;83.53
67759;SHT31;54562;47.620;18.786;2022-08-21T16:25:50;20.61;83.78
67759;SHT31;54562;47.620;18.786;2022-08-21T16:28:59;20.56;83.83
67759;SHT31;54562;47.620;18.786;2022-08-21T16:32:18;20.50;83.83
67759;SHT31;54562;47.620;18.786;2022-08-21T16:35:31;20.45;84.04
67759;SHT31;54562;47.620;18.786;2022-08-21T16:38:40;20.40;84.19
67759;SHT31;54562;47.620;18.786;2022-08-21T16:41:50;20.36;84.28
67759;SHT31;54562;47.620;18.786;2022-08-21T16:44:59;20.31;84.53
67759;SHT31;54562;47.620;18.786;2022-08-21T16:48:09;20.26;84.59
67759;SHT31;54562;47.620;18.786;2022-08-21T16:51:16;20.21;84.75
67759;SHT31;54562;47.620;18.786;2022-08-21T16:54:24;20.15;84.82
67759;SHT31;54562;47.620;18.786;2022-08-21T16:57:33;20.11;84.90
67759;SHT31;54562;47.620;18.786;2022-08-21T17:00:43;20.07;84.95
67759;SHT31;54562;47.620;18.786;2022-08-21T17:03:53;20.01;85.12
67759;SHT31;54562;47.620;18.786;2022-08-21T17:07:03;19.96;85.27
67759;SHT31;54562;47.620;18.786;2022-08-21T17:10:13;19.91;85.39
67759;SHT31;54562;47.620;18.786;2022-08-21T17:13:27;19.89;85.53
67759;SHT31;54562;47.620;18.786;2022-08-21T17:16:40;19.85;85.71
67759;SHT31;54562;47.620;18.786;2022-08-21T17:19:53;19.84;85.88
67759;SHT31;54562;47.620;18.786;2022-08-21T17:23:03;19.83;85.97
67759;SHT31;54562;47.620;18.786;2022-08-21T17:26:13;19.80;86.10
67759;SHT31;54562;47.620;18.786;2022-08-21T17:29:34;19.79;86.19
67759;SHT31;54562;47.620;18.786;2022-08-21T17:32:57;19.76;86.18
67759;SHT31;54562;47.620;18.786;2022-08-21T17:36:12;19.74;86.24
67759;SHT31;54562;47.620;18.786;2022-08-21T17:39:31;19.71;86.34
67759;SHT31;54562;47.620;18.786;2022-08-21T17:42:45;19.68;86.32
67759;SHT31;54562;47.620;18.786;2022-08-21T17:46:01;19.67;86.42
67759;SHT31;54562;47.620;18.786;2022-08-21T17:49:24;19.64;86.43
67759;SHT31;54562;47.620;18.786;2022-08-21T18:09:23;19.55;86.87
67759;SHT31;54562;47.620;18.786;2022-08-21T18:12:36;19.53;86.93
67759;SHT31;54562;47.620;18.786;2022-08-21T18:15:52;19.51;87.05
67759;SHT31;54562;47.620;18.786;2022-08-21T18:19:45;19.50;87.15
67759;SHT31;54562;47.620;18.786;2022-08-21T18:49:56;19.89;86.54
67759;SHT31;54562;47.620;18.786;2022-08-21T18:57:33;19.65;86.60
67759;SHT31;54562;47.620;18.786;2022-08-21T19:02:11;19.52;86.72
67759;SHT31;54562;47.620;18.786;2022-08-21T19:06:29;19.43;86.86
67759;SHT31;54562;47.620;18.786;2022-08-21T19:10:36;19.34;86.93
67759;SHT31;54562;47.620;18.786;2022-08-21T19:15:22;19.27;87.07
67759;SHT31;54562;47.620;18.786;2022-08-21T19:27:59;19.09;87.22
67759;SHT31;54562;47.620;18.786;2022-08-21T19:32:14;19.05;87.26
67759;SHT31;54562;47.620;18.786;2022-08-21T19:48:44;18.86;87.43
67759;SHT31;54562;47.620;18.786;2022-08-21T20:00:10;18.74;87.62
67759;SHT31;54562;47.620;18.786;2022-08-21T20:03:22;18.70;87.68
67759;SHT31;54562;47.620;18.786;2022-08-21T20:07:21;18.67;87.81
67759;SHT31;54562;47.620;18.786;2022-08-21T20:10:57;18.64;87.87
67759;SHT31;54562;47.620;18.786;2022-08-21T20:14:47;18.63;87.94
67759;SHT31;54562;47.620;18.786;2022-08-21T20:22:04;18.58;87.93
67759;SHT31;54562;47.620;18.786;2022-08-21T20:29:10;18.49;87.97
67759;SHT31;54562;47.620;18.786;2022-08-21T20:32:44;18.44;88.05
67759;SHT31;54562;47.620;18.786;2022-08-21T20:36:29;18.40;88.10
67759;SHT31;54562;47.620;18.786;2022-08-21T20:39:45;18.38;88.18
67759;SHT31;54562;47.620;18.786;2022-08-21T20:42:56;18.36;88.26
67759;SHT31;54562;47.620;18.786;2022-08-21T20:46:07;18.35;88.30
67759;SHT31;54562;47.620;18.786;2022-08-21T20:49:20;18.34;88.36
67759;SHT31;54562;47.620;18.786;2022-08-21T20:52:37;18.32;88.30
67759;SHT31;54562;47.620;18.786;2022-08-21T20:55:47;18.28;88.31
67759;SHT31;54562;47.620;18.786;2022-08-21T20:58:59;18.27;88.36
67759;SHT31;54562;47.620;18.786;2022-08-21T21:02:30;18.23;88.40
67759;SHT31;54562;47.620;18.786;2022-08-21T21:05:51;18.19;88.43
67759;SHT31;54562;47.620;18.786;2022-08-21T21:09:07;18.17;88.42
67759;SHT31;54562;47.620;18.786;2022-08-21T21:12:31;18.13;88.46
67759;SHT31;54562;47.620;18.786;2022-08-21T21:20:39;18.10;88.60
67759;SHT31;54562;47.620;18.786;2022-08-21T21:32:46;18.02;88.65
67759;SHT31;54562;47.620;18.786;2022-08-21T21:36:27;18.01;88.64
67759;SHT31;54562;47.620;18.786;2022-08-21T21:58:38;17.91;88.81
67759;SHT31;54562;47.620;18.786;2022-08-21T22:02:23;17.89;88.89
67759;SHT31;54562;47.620;18.786;2022-08-21T22:06:41;17.89;88.88
67759;SHT31;54562;47.620;18.786;2022-08-21T22:17:59;17.82;88.90
67759;SHT31;54562;47.620;18.786;2022-08-21T22:21:54;17.78;88.93